sensor_id;sensor_type;location;lat;lon;timestamp;P1;durP1;ratioP1;P2;durP2;ratioP2
29576;SDS011;16509;53.862;10.672;2023-06-24T00:00:45;3.00;;;1.95;;
29576;SDS011;16509;53.862;10.672;2023-06-24T00:03:10;3.88;;;2.03;;
29576;SDS011;16509;53.862;10.672;2023-06-24T00:05:37;3.50;;;2.13;;
29576;SDS011;16509;53.862;10.672;2023-06-24T00:08:04;3.78;;;2.00;;
29576;SDS011;16509;53.862;10.672;2023-06-24T00:10:31;3.95;;;2.38;;
29576;SDS011;16509;53.862;10.672;2023-06-24T00:12:57;4.50;;;3.20;;
29576;SDS011;16509;53.862;10.672;2023-06-24T00:15:26;3.20;;;2.22;;
29576;SDS011;16509;53.862;10.672;2023-06-24T00:17:52;3.25;;;2.22;;
29576;SDS011;16509;53.862;10.672;2023-06-24T00:20:17;2.88;;;2.25;;
29576;SDS011;16509;53.862;10.672;2023-06-24T00:22:45;4.07;;;2.70;;
29576;SDS011;16509;53.862;10.672;2023-06-24T00:25:13;2.88;;;2.10;;
29576;SDS011;16509;53.862;10.672;2023-06-24T00:27:40;3.50;;;2.25;;
29576;SDS011;16509;53.862;10.672;2023-06-24T00:30:07;3.78;;;2.58;;
29576;SDS011;16509;53.862;10.672;2023-06-24T00:32:33;5.10;;;2.65;;
29576;SDS011;16509;53.862;10.672;2023-06-24T00:34:59;6.88;;;2.25;;
29576;SDS011;16509;53.862;10.672;2023-06-24T00:37:25;2.72;;;1.73;;
29576;SDS011;16509;53.862;10.672;2023-06-24T00:39:50;2.00;;;1.73;;
29576;SDS011;16509;53.862;10.672;2023-06-24T00:42:16;2.28;;;2.00;;
29576;SDS011;16509;53.862;10.672;2023-06-24T00:44:42;3.83;;;2.13;;
29576;SDS011;16509;53.862;10.672;2023-06-24T00:47:08;2.10;;;1.90;;
29576;SDS011;16509;53.862;10.672;2023-06-24T00:49:35;2.25;;;1.85;;
29576;SDS011;16509;53.862;10.672;2023-06-24T00:52:00;2.42;;;1.73;;
29576;SDS011;16509;53.862;10.672;2023-06-24T00:54:26;2.72;;;2.10;;
29576;SDS011;16509;53.862;10.672;2023-06-24T00:56:56;2.42;;;1.85;;
29576;SDS011;16509;53.862;10.672;2023-06-24T00:59:25;3.47;;;2.28;;
29576;SDS011;16509;53.862;10.672;2023-06-24T01:01:54;3.05;;;2.33;;
29576;SDS011;16509;53.862;10.672;2023-06-24T01:04:19;4.68;;;2.05;;
29576;SDS011;16509;53.862;10.672;2023-06-24T01:06:45;2.22;;;2.00;;
29576;SDS011;16509;53.862;10.672;2023-06-24T01:09:11;4.18;;;2.53;;
29576;SDS011;16509;53.862;10.672;2023-06-24T01:11:38;2.92;;;2.25;;
29576;SDS011;16509;53.862;10.672;2023-06-24T01:14:04;3.08;;;2.42;;
29576;SDS011;16509;53.862;10.672;2023-06-24T01:16:43;2.38;;;1.83;;
29576;SDS011;16509;53.862;10.672;2023-06-24T01:27:45;3.20;;;2.00;;
29576;SDS011;16509;53.862;10.672;2023-06-24T01:33:09;2.40;;;1.77;;
29576;SDS011;16509;53.862;10.672;2023-06-24T01:35:40;2.83;;;2.15;;
29576;SDS011;16509;53.862;10.672;2023-06-24T01:38:08;6.78;;;2.40;;
29576;SDS011;16509;53.862;10.672;2023-06-24T01:40:41;3.25;;;2.10;;
29576;SDS011;16509;53.862;10.672;2023-06-24T01:43:09;3.42;;;2.58;;
29576;SDS011;16509;53.862;10.672;2023-06-24T01:45:40;5.72;;;2.55;;
29576;SDS011;16509;53.862;10.672;2023-06-24T01:48:09;3.38;;;1.95;;
29576;SDS011;16509;53.862;10.672;2023-06-24T01:50:39;3.38;;;2.55;;
29576;SDS011;16509;53.862;10.672;2023-06-24T01:53:09;4.88;;;3.00;;
29576;SDS011;16509;53.862;10.672;2023-06-24T01:55:39;3.03;;;2.38;;
29576;SDS011;16509;53.862;10.672;2023-06-24T01:58:06;3.30;;;2.58;;
29576;SDS011;16509;53.862;10.672;2023-06-24T02:00:33;3.45;;;2.47;;
29576;SDS011;16509;53.862;10.672;2023-06-24T02:03:00;2.67;;;2.05;;
29576;SDS011;16509;53.862;10.672;2023-06-24T02:05:28;3.25;;;2.65;;
29576;SDS011;16509;53.862;10.672;2023-06-24T02:07:54;2.83;;;2.35;;
29576;SDS011;16509;53.862;10.672;2023-06-24T02:10:21;2.60;;;1.92;;
29576;SDS011;16509;53.862;10.672;2023-06-24T02:12:49;3.10;;;2.03;;
29576;SDS011;16509;53.862;10.672;2023-06-24T02:15:17;3.42;;;2.38;;
29576;SDS011;16509;53.862;10.672;2023-06-24T02:17:43;4.35;;;2.75;;
29576;SDS011;16509;53.862;10.672;2023-06-24T02:20:10;2.30;;;1.92;;
29576;SDS011;16509;53.862;10.672;2023-06-24T02:22:37;2.50;;;2.08;;
29576;SDS011;16509;53.862;10.672;2023-06-24T02:25:04;4.32;;;3.25;;
29576;SDS011;16509;53.862;10.672;2023-06-24T02:27:31;4.00;;;2.47;;
29576;SDS011;16509;53.862;10.672;2023-06-24T02:29:58;3.63;;;2.42;;
29576;SDS011;16509;53.862;10.672;2023-06-24T02:32:25;3.72;;;2.33;;
29576;SDS011;16509;53.862;10.672;2023-06-24T02:34:50;4.22;;;2.17;;
29576;SDS011;16509;53.862;10.672;2023-06-24T02:37:16;3.38;;;1.98;;
29576;SDS011;16509;53.862;10.672;2023-06-24T02:39:42;3.30;;;2.63;;
29576;SDS011;16509;53.862;10.672;2023-06-24T02:42:12;5.93;;;2.85;;
29576;SDS011;16509;53.862;10.672;2023-06-24T02:44:38;3.70;;;2.22;;
29576;SDS011;16509;53.862;10.672;2023-06-24T02:47:05;3.88;;;2.58;;
29576;SDS011;16509;53.862;10.672;2023-06-24T02:49:34;10.32;;;2.58;;
29576;SDS011;16509;53.862;10.672;2023-06-24T02:52:01;6.93;;;2.33;;
29576;SDS011;16509;53.862;10.672;2023-06-24T02:54:27;2.70;;;2.13;;
29576;SDS011;16509;53.862;10.672;2023-06-24T02:56:53;3.08;;;2.30;;
29576;SDS011;16509;53.862;10.672;2023-06-24T02:59:23;4.55;;;3.25;;
29576;SDS011;16509;53.862;10.672;2023-06-24T03:01:51;5.15;;;3.00;;
29576;SDS011;16509;53.862;10.672;2023-06-24T03:04:19;4.30;;;2.90;;
29576;SDS011;16509;53.862;10.672;2023-06-24T03:06:45;2.97;;;1.98;;
29576;SDS011;16509;53.862;10.672;2023-06-24T03:09:11;3.05;;;2.53;;
29576;SDS011;16509;53.862;10.672;2023-06-24T03:11:43;3.67;;;2.78;;
29576;SDS011;16509;53.862;10.672;2023-06-24T03:14:09;4.03;;;2.63;;
29576;SDS011;16509;53.862;10.672;2023-06-24T03:16:36;3.30;;;2.35;;
29576;SDS011;16509;53.862;10.672;2023-06-24T03:19:03;2.90;;;1.98;;
29576;SDS011;16509;53.862;10.672;2023-06-24T03:21:29;4.45;;;3.15;;
29576;SDS011;16509;53.862;10.672;2023-06-24T03:23:55;6.03;;;3.05;;
29576;SDS011;16509;53.862;10.672;2023-06-24T03:26:20;4.20;;;2.90;;
29576;SDS011;16509;53.862;10.672;2023-06-24T03:28:46;3.08;;;2.08;;
29576;SDS011;16509;53.862;10.672;2023-06-24T03:31:13;1.83;;;1.67;;
29576;SDS011;16509;53.862;10.672;2023-06-24T03:33:40;2.45;;;2.20;;
29576;SDS011;16509;53.862;10.672;2023-06-24T03:36:09;4.10;;;2.67;;
29576;SDS011;16509;53.862;10.672;2023-06-24T03:38:35;3.30;;;2.42;;
29576;SDS011;16509;53.862;10.672;2023-06-24T03:41:01;3.38;;;2.67;;
29576;SDS011;16509;53.862;10.672;2023-06-24T03:43:27;2.88;;;2.08;;
29576;SDS011;16509;53.862;10.672;2023-06-24T03:45:53;2.78;;;2.13;;
29576;SDS011;16509;53.862;10.672;2023-06-24T03:48:20;3.88;;;2.30;;
29576;SDS011;16509;53.862;10.672;2023-06-24T03:50:45;3.45;;;2.97;;
29576;SDS011;16509;53.862;10.672;2023-06-24T03:53:11;3.88;;;2.55;;
29576;SDS011;16509;53.862;10.672;2023-06-24T03:55:36;3.95;;;2.78;;
29576;SDS011;16509;53.862;10.672;2023-06-24T03:58:02;4.45;;;2.42;;
29576;SDS011;16509;53.862;10.672;2023-06-24T04:00:27;4.05;;;2.58;;
29576;SDS011;16509;53.862;10.672;2023-06-24T04:02:53;2.92;;;2.30;;
29576;SDS011;16509;53.862;10.672;2023-06-24T04:05:20;4.53;;;2.67;;
29576;SDS011;16509;53.862;10.672;2023-06-24T04:07:46;2.83;;;2.30;;
29576;SDS011;16509;53.862;10.672;2023-06-24T04:10:12;4.38;;;2.83;;
29576;SDS011;16509;53.862;10.672;2023-06-24T04:12:38;6.72;;;2.88;;
29576;SDS011;16509;53.862;10.672;2023-06-24T04:15:04;3.13;;;2.25;;
29576;SDS011;16509;53.862;10.672;2023-06-24T04:17:30;2.78;;;1.60;;
29576;SDS011;16509;53.862;10.672;2023-06-24T04:19:56;6.93;;;2.92;;
29576;SDS011;16509;53.862;10.672;2023-06-24T04:22:23;3.33;;;2.25;;
29576;SDS011;16509;53.862;10.672;2023-06-24T04:24:49;2.50;;;1.38;;
29576;SDS011;16509;53.862;10.672;2023-06-24T04:27:15;2.15;;;1.90;;
29576;SDS011;16509;53.862;10.672;2023-06-24T04:29:41;3.53;;;2.13;;
29576;SDS011;16509;53.862;10.672;2023-06-24T04:32:07;3.33;;;2.25;;
29576;SDS011;16509;53.862;10.672;2023-06-24T04:34:33;2.50;;;2.00;;
29576;SDS011;16509;53.862;10.672;2023-06-24T04:36:59;3.88;;;1.90;;
29576;SDS011;16509;53.862;10.672;2023-06-24T04:39:24;2.83;;;2.15;;
29576;SDS011;16509;53.862;10.672;2023-06-24T04:41:50;3.22;;;2.33;;
29576;SDS011;16509;53.862;10.672;2023-06-24T04:44:16;4.55;;;2.03;;
29576;SDS011;16509;53.862;10.672;2023-06-24T04:46:41;3.92;;;2.35;;
29576;SDS011;16509;53.862;10.672;2023-06-24T04:49:07;4.45;;;3.03;;
29576;SDS011;16509;53.862;10.672;2023-06-24T04:51:32;4.75;;;2.58;;
29576;SDS011;16509;53.862;10.672;2023-06-24T04:53:58;3.88;;;2.22;;
29576;SDS011;16509;53.862;10.672;2023-06-24T04:56:24;2.72;;;2.10;;
29576;SDS011;16509;53.862;10.672;2023-06-24T04:58:50;2.58;;;2.10;;
29576;SDS011;16509;53.862;10.672;2023-06-24T05:01:17;4.38;;;1.92;;
29576;SDS011;16509;53.862;10.672;2023-06-24T05:03:42;2.70;;;2.25;;
29576;SDS011;16509;53.862;10.672;2023-06-24T05:06:08;2.30;;;2.05;;
29576;SDS011;16509;53.862;10.672;2023-06-24T05:08:33;4.00;;;2.65;;
29576;SDS011;16509;53.862;10.672;2023-06-24T05:10:59;3.28;;;2.53;;
29576;SDS011;16509;53.862;10.672;2023-06-24T05:13:24;5.82;;;2.40;;
29576;SDS011;16509;53.862;10.672;2023-06-24T05:15:51;7.32;;;2.95;;
29576;SDS011;16509;53.862;10.672;2023-06-24T05:18:17;4.72;;;2.78;;
29576;SDS011;16509;53.862;10.672;2023-06-24T05:20:42;6.93;;;2.97;;
29576;SDS011;16509;53.862;10.672;2023-06-24T05:23:08;5.07;;;3.95;;
29576;SDS011;16509;53.862;10.672;2023-06-24T05:25:33;5.55;;;2.92;;
29576;SDS011;16509;53.862;10.672;2023-06-24T05:28:00;5.28;;;3.33;;
29576;SDS011;16509;53.862;10.672;2023-06-24T05:30:25;5.32;;;3.00;;
29576;SDS011;16509;53.862;10.672;2023-06-24T05:32:51;4.47;;;2.88;;
29576;SDS011;16509;53.862;10.672;2023-06-24T05:35:17;4.40;;;2.65;;
29576;SDS011;16509;53.862;10.672;2023-06-24T05:37:42;3.95;;;2.05;;
29576;SDS011;16509;53.862;10.672;2023-06-24T05:40:08;5.95;;;2.65;;
29576;SDS011;16509;53.862;10.672;2023-06-24T05:42:34;4.78;;;3.20;;
29576;SDS011;16509;53.862;10.672;2023-06-24T05:45:00;3.85;;;2.63;;
29576;SDS011;16509;53.862;10.672;2023-06-24T05:47:25;4.28;;;2.35;;
29576;SDS011;16509;53.862;10.672;2023-06-24T05:49:51;8.00;;;2.90;;
29576;SDS011;16509;53.862;10.672;2023-06-24T05:52:16;3.25;;;2.13;;
29576;SDS011;16509;53.862;10.672;2023-06-24T05:54:42;6.32;;;1.88;;
29576;SDS011;16509;53.862;10.672;2023-06-24T05:57:08;4.60;;;2.17;;
29576;SDS011;16509;53.862;10.672;2023-06-24T05:59:35;4.70;;;1.77;;
29576;SDS011;16509;53.862;10.672;2023-06-24T06:02:00;3.10;;;2.08;;
29576;SDS011;16509;53.862;10.672;2023-06-24T06:04:29;2.88;;;1.83;;
29576;SDS011;16509;53.862;10.672;2023-06-24T06:06:54;4.10;;;2.53;;
29576;SDS011;16509;53.862;10.672;2023-06-24T06:09:21;1.70;;;1.55;;
29576;SDS011;16509;53.862;10.672;2023-06-24T06:11:47;5.68;;;2.15;;
29576;SDS011;16509;53.862;10.672;2023-06-24T06:14:13;2.58;;;1.58;;
29576;SDS011;16509;53.862;10.672;2023-06-24T06:16:38;2.33;;;1.70;;
29576;SDS011;16509;53.862;10.672;2023-06-24T06:19:04;4.07;;;2.42;;
29576;SDS011;16509;53.862;10.672;2023-06-24T06:21:30;3.10;;;1.88;;
29576;SDS011;16509;53.862;10.672;2023-06-24T06:23:56;2.03;;;1.60;;
29576;SDS011;16509;53.862;10.672;2023-06-24T06:26:22;2.67;;;2.17;;
29576;SDS011;16509;53.862;10.672;2023-06-24T06:28:47;2.70;;;1.60;;
29576;SDS011;16509;53.862;10.672;2023-06-24T06:33:39;3.22;;;2.28;;
29576;SDS011;16509;53.862;10.672;2023-06-24T06:36:05;2.38;;;1.98;;
29576;SDS011;16509;53.862;10.672;2023-06-24T06:38:31;2.63;;;1.63;;
29576;SDS011;16509;53.862;10.672;2023-06-24T06:40:57;1.52;;;1.40;;
29576;SDS011;16509;53.862;10.672;2023-06-24T06:43:23;2.60;;;1.65;;
29576;SDS011;16509;53.862;10.672;2023-06-24T06:45:48;2.53;;;1.63;;
29576;SDS011;16509;53.862;10.672;2023-06-24T06:48:14;1.75;;;1.30;;
29576;SDS011;16509;53.862;10.672;2023-06-24T06:50:39;2.58;;;1.70;;
29576;SDS011;16509;53.862;10.672;2023-06-24T06:53:05;2.53;;;1.65;;
29576;SDS011;16509;53.862;10.672;2023-06-24T06:55:30;3.22;;;1.52;;
29576;SDS011;16509;53.862;10.672;2023-06-24T06:57:56;2.03;;;1.42;;
29576;SDS011;16509;53.862;10.672;2023-06-24T07:00:22;1.17;;;1.08;;
29576;SDS011;16509;53.862;10.672;2023-06-24T07:02:47;3.38;;;1.48;;
29576;SDS011;16509;53.862;10.672;2023-06-24T07:05:13;2.35;;;1.50;;
29576;SDS011;16509;53.862;10.672;2023-06-24T07:07:38;2.97;;;1.38;;
29576;SDS011;16509;53.862;10.672;2023-06-24T07:10:04;5.28;;;1.73;;
29576;SDS011;16509;53.862;10.672;2023-06-24T07:12:30;2.97;;;1.40;;
29576;SDS011;16509;53.862;10.672;2023-06-24T07:14:56;1.80;;;1.20;;
29576;SDS011;16509;53.862;10.672;2023-06-24T07:17:22;2.60;;;1.35;;
29576;SDS011;16509;53.862;10.672;2023-06-24T07:19:47;2.20;;;1.40;;
29576;SDS011;16509;53.862;10.672;2023-06-24T07:22:13;2.45;;;1.67;;
29576;SDS011;16509;53.862;10.672;2023-06-24T07:24:39;2.65;;;1.42;;
29576;SDS011;16509;53.862;10.672;2023-06-24T07:27:05;6.18;;;1.15;;
29576;SDS011;16509;53.862;10.672;2023-06-24T07:29:31;2.50;;;1.35;;
29576;SDS011;16509;53.862;10.672;2023-06-24T07:31:56;3.08;;;1.40;;
29576;SDS011;16509;53.862;10.672;2023-06-24T07:34:22;1.88;;;1.30;;
29576;SDS011;16509;53.862;10.672;2023-06-24T07:36:47;3.45;;;1.35;;
29576;SDS011;16509;53.862;10.672;2023-06-24T07:39:15;1.73;;;1.35;;
29576;SDS011;16509;53.862;10.672;2023-06-24T07:41:41;2.00;;;1.40;;
29576;SDS011;16509;53.862;10.672;2023-06-24T07:44:07;1.30;;;1.13;;
29576;SDS011;16509;53.862;10.672;2023-06-24T07:46:33;1.98;;;1.17;;
29576;SDS011;16509;53.862;10.672;2023-06-24T07:48:59;1.80;;;1.20;;
29576;SDS011;16509;53.862;10.672;2023-06-24T07:51:24;3.30;;;1.13;;
29576;SDS011;16509;53.862;10.672;2023-06-24T07:53:50;1.27;;;1.05;;
29576;SDS011;16509;53.862;10.672;2023-06-24T07:56:16;1.05;;;0.80;;
29576;SDS011;16509;53.862;10.672;2023-06-24T07:58:41;4.88;;;1.17;;
29576;SDS011;16509;53.862;10.672;2023-06-24T08:01:07;1.38;;;1.00;;
29576;SDS011;16509;53.862;10.672;2023-06-24T08:03:33;1.00;;;0.90;;
29576;SDS011;16509;53.862;10.672;2023-06-24T08:05:59;1.52;;;1.00;;
29576;SDS011;16509;53.862;10.672;2023-06-24T08:08:24;1.25;;;1.00;;
29576;SDS011;16509;53.862;10.672;2023-06-24T08:10:50;1.52;;;0.98;;
29576;SDS011;16509;53.862;10.672;2023-06-24T08:13:15;1.33;;;1.10;;
29576;SDS011;16509;53.862;10.672;2023-06-24T08:15:41;1.10;;;0.90;;
29576;SDS011;16509;53.862;10.672;2023-06-24T08:18:06;1.25;;;0.93;;
29576;SDS011;16509;53.862;10.672;2023-06-24T08:20:32;2.58;;;1.00;;
29576;SDS011;16509;53.862;10.672;2023-06-24T08:22:57;1.90;;;1.00;;
29576;SDS011;16509;53.862;10.672;2023-06-24T08:25:23;2.35;;;1.17;;
29576;SDS011;16509;53.862;10.672;2023-06-24T08:27:49;2.67;;;1.15;;
29576;SDS011;16509;53.862;10.672;2023-06-24T08:30:14;1.33;;;0.82;;
29576;SDS011;16509;53.862;10.672;2023-06-24T08:32:40;2.13;;;1.10;;
29576;SDS011;16509;53.862;10.672;2023-06-24T08:35:07;6.30;;;1.63;;
29576;SDS011;16509;53.862;10.672;2023-06-24T08:37:34;1.55;;;1.02;;
29576;SDS011;16509;53.862;10.672;2023-06-24T08:40:01;0.90;;;0.52;;
29576;SDS011;16509;53.862;10.672;2023-06-24T08:42:29;0.73;;;0.73;;
29576;SDS011;16509;53.862;10.672;2023-06-24T08:44:54;2.03;;;1.45;;
29576;SDS011;16509;53.862;10.672;2023-06-24T08:47:20;1.58;;;1.10;;
29576;SDS011;16509;53.862;10.672;2023-06-24T08:49:49;0.82;;;0.82;;
29576;SDS011;16509;53.862;10.672;2023-06-24T08:54:50;2.47;;;1.23;;
29576;SDS011;16509;53.862;10.672;2023-06-24T08:57:16;3.47;;;1.45;;
29576;SDS011;16509;53.862;10.672;2023-06-24T08:59:43;2.13;;;1.10;;
29576;SDS011;16509;53.862;10.672;2023-06-24T09:02:09;3.85;;;1.30;;
29576;SDS011;16509;53.862;10.672;2023-06-24T09:04:36;1.10;;;0.98;;
29576;SDS011;16509;53.862;10.672;2023-06-24T09:07:01;1.05;;;0.95;;
29576;SDS011;16509;53.862;10.672;2023-06-24T09:09:28;1.40;;;1.30;;
29576;SDS011;16509;53.862;10.672;2023-06-24T09:11:57;1.80;;;1.20;;
29576;SDS011;16509;53.862;10.672;2023-06-24T09:14:24;1.30;;;0.90;;
29576;SDS011;16509;53.862;10.672;2023-06-24T09:16:54;1.65;;;1.08;;
29576;SDS011;16509;53.862;10.672;2023-06-24T09:19:26;4.00;;;1.10;;
29576;SDS011;16509;53.862;10.672;2023-06-24T09:21:55;1.73;;;1.30;;
29576;SDS011;16509;53.862;10.672;2023-06-24T09:24:35;2.13;;;1.05;;
29576;SDS011;16509;53.862;10.672;2023-06-24T09:27:02;0.80;;;0.70;;
29576;SDS011;16509;53.862;10.672;2023-06-24T09:29:29;3.45;;;1.10;;
29576;SDS011;16509;53.862;10.672;2023-06-24T09:31:57;1.23;;;0.93;;
29576;SDS011;16509;53.862;10.672;2023-06-24T09:34:24;2.05;;;1.08;;
29576;SDS011;16509;53.862;10.672;2023-06-24T09:36:54;1.88;;;1.00;;
29576;SDS011;16509;53.862;10.672;2023-06-24T09:39:20;1.52;;;1.00;;
29576;SDS011;16509;53.862;10.672;2023-06-24T09:41:50;1.27;;;0.77;;
29576;SDS011;16509;53.862;10.672;2023-06-24T09:44:16;0.73;;;0.73;;
29576;SDS011;16509;53.862;10.672;2023-06-24T09:46:44;1.85;;;1.05;;
29576;SDS011;16509;53.862;10.672;2023-06-24T09:49:10;1.70;;;0.93;;
29576;SDS011;16509;53.862;10.672;2023-06-24T09:51:40;1.08;;;0.95;;
29576;SDS011;16509;53.862;10.672;2023-06-24T09:54:10;2.75;;;1.20;;
29576;SDS011;16509;53.862;10.672;2023-06-24T09:56:37;1.27;;;0.95;;
29576;SDS011;16509;53.862;10.672;2023-06-24T09:59:08;1.50;;;0.88;;
29576;SDS011;16509;53.862;10.672;2023-06-24T10:01:36;1.27;;;0.98;;
29576;SDS011;16509;53.862;10.672;2023-06-24T10:04:04;2.42;;;1.38;;
29576;SDS011;16509;53.862;10.672;2023-06-24T10:06:31;1.75;;;1.38;;
29576;SDS011;16509;53.862;10.672;2023-06-24T10:08:58;1.85;;;1.13;;
29576;SDS011;16509;53.862;10.672;2023-06-24T10:11:24;1.33;;;0.90;;
29576;SDS011;16509;53.862;10.672;2023-06-24T10:13:50;1.33;;;1.10;;
29576;SDS011;16509;53.862;10.672;2023-06-24T10:16:16;1.60;;;0.90;;
29576;SDS011;16509;53.862;10.672;2023-06-24T10:18:43;4.05;;;1.10;;
29576;SDS011;16509;53.862;10.672;2023-06-24T10:21:09;1.17;;;1.05;;
29576;SDS011;16509;53.862;10.672;2023-06-24T10:23:39;1.67;;;1.10;;
29576;SDS011;16509;53.862;10.672;2023-06-24T10:26:10;0.65;;;0.60;;
29576;SDS011;16509;53.862;10.672;2023-06-24T10:34:47;1.30;;;0.80;;
29576;SDS011;16509;53.862;10.672;2023-06-24T10:36:54;1.13;;;0.85;;
29576;SDS011;16509;53.862;10.672;2023-06-24T10:39:36;0.90;;;0.77;;
29576;SDS011;16509;53.862;10.672;2023-06-24T10:42:36;2.60;;;0.95;;
29576;SDS011;16509;53.862;10.672;2023-06-24T10:47:34;2.13;;;0.98;;
29576;SDS011;16509;53.862;10.672;2023-06-24T10:50:01;1.23;;;0.88;;
29576;SDS011;16509;53.862;10.672;2023-06-24T10:52:27;2.60;;;1.08;;
29576;SDS011;16509;53.862;10.672;2023-06-24T10:54:53;1.35;;;1.10;;
29576;SDS011;16509;53.862;10.672;2023-06-24T10:57:24;1.40;;;1.05;;
29576;SDS011;16509;53.862;10.672;2023-06-24T10:59:52;0.77;;;0.77;;
29576;SDS011;16509;53.862;10.672;2023-06-24T11:02:19;1.65;;;1.10;;
29576;SDS011;16509;53.862;10.672;2023-06-24T11:04:53;1.45;;;1.00;;
29576;SDS011;16509;53.862;10.672;2023-06-24T11:07:20;2.30;;;0.88;;
29576;SDS011;16509;53.862;10.672;2023-06-24T11:09:54;1.45;;;1.00;;
29576;SDS011;16509;53.862;10.672;2023-06-24T11:12:25;1.50;;;1.10;;
29576;SDS011;16509;53.862;10.672;2023-06-24T11:14:54;1.15;;;0.95;;
29576;SDS011;16509;53.862;10.672;2023-06-24T11:17:24;1.55;;;1.15;;
29576;SDS011;16509;53.862;10.672;2023-06-24T11:19:52;1.85;;;1.00;;
29576;SDS011;16509;53.862;10.672;2023-06-24T11:22:21;1.20;;;1.10;;
29576;SDS011;16509;53.862;10.672;2023-06-24T11:24:48;2.55;;;1.45;;
29576;SDS011;16509;53.862;10.672;2023-06-24T11:27:13;1.30;;;1.02;;
29576;SDS011;16509;53.862;10.672;2023-06-24T11:29:39;2.28;;;1.15;;
29576;SDS011;16509;53.862;10.672;2023-06-24T11:32:09;1.38;;;1.25;;
29576;SDS011;16509;53.862;10.672;2023-06-24T11:34:35;7.90;;;1.30;;
29576;SDS011;16509;53.862;10.672;2023-06-24T11:37:11;1.70;;;0.82;;
29576;SDS011;16509;53.862;10.672;2023-06-24T11:39:38;1.45;;;1.20;;
29576;SDS011;16509;53.862;10.672;2023-06-24T11:42:05;1.73;;;1.10;;
29576;SDS011;16509;53.862;10.672;2023-06-24T11:44:33;1.13;;;1.02;;
29576;SDS011;16509;53.862;10.672;2023-06-24T11:47:08;1.67;;;1.23;;
29576;SDS011;16509;53.862;10.672;2023-06-24T11:49:48;1.10;;;1.00;;
29576;SDS011;16509;53.862;10.672;2023-06-24T11:52:18;1.45;;;1.08;;
29576;SDS011;16509;53.862;10.672;2023-06-24T11:54:44;1.48;;;1.27;;
29576;SDS011;16509;53.862;10.672;2023-06-24T11:57:09;0.90;;;0.90;;
29576;SDS011;16509;53.862;10.672;2023-06-24T11:59:35;1.15;;;0.95;;
29576;SDS011;16509;53.862;10.672;2023-06-24T12:02:00;1.88;;;1.17;;
29576;SDS011;16509;53.862;10.672;2023-06-24T12:04:31;2.65;;;1.30;;
29576;SDS011;16509;53.862;10.672;2023-06-24T12:06:58;1.70;;;1.10;;
29576;SDS011;16509;53.862;10.672;2023-06-24T12:09:25;1.45;;;1.00;;
29576;SDS011;16509;53.862;10.672;2023-06-24T12:11:51;1.30;;;0.90;;
29576;SDS011;16509;53.862;10.672;2023-06-24T12:14:17;1.13;;;1.00;;
29576;SDS011;16509;53.862;10.672;2023-06-24T12:16:43;3.65;;;1.50;;
29576;SDS011;16509;53.862;10.672;2023-06-24T12:19:09;1.38;;;1.15;;
29576;SDS011;16509;53.862;10.672;2023-06-24T12:21:36;1.33;;;1.10;;
29576;SDS011;16509;53.862;10.672;2023-06-24T12:24:02;2.88;;;1.13;;
29576;SDS011;16509;53.862;10.672;2023-06-24T12:26:29;1.40;;;1.15;;
29576;SDS011;16509;53.862;10.672;2023-06-24T12:28:54;1.85;;;1.25;;
29576;SDS011;16509;53.862;10.672;2023-06-24T12:33:56;1.55;;;1.00;;
29576;SDS011;16509;53.862;10.672;2023-06-24T12:36:21;1.15;;;0.82;;
29576;SDS011;16509;53.862;10.672;2023-06-24T12:38:47;1.95;;;1.00;;
29576;SDS011;16509;53.862;10.672;2023-06-24T12:41:13;1.05;;;0.90;;
29576;SDS011;16509;53.862;10.672;2023-06-24T12:43:39;2.38;;;1.40;;
29576;SDS011;16509;53.862;10.672;2023-06-24T12:46:05;1.35;;;0.98;;
29576;SDS011;16509;53.862;10.672;2023-06-24T12:48:31;1.27;;;0.95;;
29576;SDS011;16509;53.862;10.672;2023-06-24T12:50:57;1.42;;;1.00;;
29576;SDS011;16509;53.862;10.672;2023-06-24T12:53:22;2.08;;;1.35;;
29576;SDS011;16509;53.862;10.672;2023-06-24T12:55:48;1.40;;;1.13;;
29576;SDS011;16509;53.862;10.672;2023-06-24T12:58:14;2.20;;;1.33;;
29576;SDS011;16509;53.862;10.672;2023-06-24T13:00:43;1.33;;;1.00;;
29576;SDS011;16509;53.862;10.672;2023-06-24T13:03:09;2.83;;;1.70;;
29576;SDS011;16509;53.862;10.672;2023-06-24T13:05:34;3.13;;;1.52;;
29576;SDS011;16509;53.862;10.672;2023-06-24T13:08:00;1.45;;;1.08;;
29576;SDS011;16509;53.862;10.672;2023-06-24T13:10:26;2.60;;;1.15;;
29576;SDS011;16509;53.862;10.672;2023-06-24T13:12:52;1.85;;;1.20;;
29576;SDS011;16509;53.862;10.672;2023-06-24T13:15:18;1.25;;;1.02;;
29576;SDS011;16509;53.862;10.672;2023-06-24T13:17:44;1.90;;;1.20;;
29576;SDS011;16509;53.862;10.672;2023-06-24T13:20:09;1.42;;;1.20;;
29576;SDS011;16509;53.862;10.672;2023-06-24T13:22:35;2.70;;;1.48;;
29576;SDS011;16509;53.862;10.672;2023-06-24T13:25:01;1.42;;;1.05;;
29576;SDS011;16509;53.862;10.672;2023-06-24T13:27:26;1.75;;;1.15;;
29576;SDS011;16509;53.862;10.672;2023-06-24T13:29:52;2.08;;;1.48;;
29576;SDS011;16509;53.862;10.672;2023-06-24T13:32:18;1.48;;;1.17;;
29576;SDS011;16509;53.862;10.672;2023-06-24T13:34:44;3.47;;;1.25;;
29576;SDS011;16509;53.862;10.672;2023-06-24T13:37:10;1.77;;;1.20;;
29576;SDS011;16509;53.862;10.672;2023-06-24T13:39:36;2.53;;;1.10;;
29576;SDS011;16509;53.862;10.672;2023-06-24T13:42:02;1.48;;;1.33;;
29576;SDS011;16509;53.862;10.672;2023-06-24T13:44:28;1.30;;;0.88;;
29576;SDS011;16509;53.862;10.672;2023-06-24T13:46:53;4.60;;;1.30;;
29576;SDS011;16509;53.862;10.672;2023-06-24T13:49:19;2.33;;;1.25;;
29576;SDS011;16509;53.862;10.672;2023-06-24T13:51:45;1.52;;;1.20;;
29576;SDS011;16509;53.862;10.672;2023-06-24T13:54:11;1.48;;;1.30;;
29576;SDS011;16509;53.862;10.672;2023-06-24T13:56:36;1.77;;;1.20;;
29576;SDS011;16509;53.862;10.672;2023-06-24T13:59:02;2.20;;;1.33;;
29576;SDS011;16509;53.862;10.672;2023-06-24T14:01:28;1.45;;;1.10;;
29576;SDS011;16509;53.862;10.672;2023-06-24T14:03:54;1.65;;;1.08;;
29576;SDS011;16509;53.862;10.672;2023-06-24T14:06:20;2.08;;;1.30;;
29576;SDS011;16509;53.862;10.672;2023-06-24T14:08:47;2.08;;;1.45;;
29576;SDS011;16509;53.862;10.672;2023-06-24T14:11:13;1.90;;;1.30;;
29576;SDS011;16509;53.862;10.672;2023-06-24T14:13:39;1.85;;;1.23;;
29576;SDS011;16509;53.862;10.672;2023-06-24T14:16:05;1.80;;;1.40;;
29576;SDS011;16509;53.862;10.672;2023-06-24T14:18:31;2.53;;;1.35;;
29576;SDS011;16509;53.862;10.672;2023-06-24T14:21:01;3.40;;;1.10;;
29576;SDS011;16509;53.862;10.672;2023-06-24T14:23:28;2.58;;;1.35;;
29576;SDS011;16509;53.862;10.672;2023-06-24T14:25:55;2.60;;;1.38;;
29576;SDS011;16509;53.862;10.672;2023-06-24T14:28:21;1.35;;;1.10;;
29576;SDS011;16509;53.862;10.672;2023-06-24T14:30:47;2.13;;;1.23;;
29576;SDS011;16509;53.862;10.672;2023-06-24T14:33:13;1.25;;;0.93;;
29576;SDS011;16509;53.862;10.672;2023-06-24T14:35:39;1.80;;;1.20;;
29576;SDS011;16509;53.862;10.672;2023-06-24T14:38:05;1.27;;;1.13;;
29576;SDS011;16509;53.862;10.672;2023-06-24T14:40:31;1.50;;;1.13;;
29576;SDS011;16509;53.862;10.672;2023-06-24T14:42:57;1.35;;;1.10;;
29576;SDS011;16509;53.862;10.672;2023-06-24T14:45:23;2.58;;;1.08;;
29576;SDS011;16509;53.862;10.672;2023-06-24T14:47:48;1.50;;;1.00;;
29576;SDS011;16509;53.862;10.672;2023-06-24T14:50:14;1.67;;;0.90;;
29576;SDS011;16509;53.862;10.672;2023-06-24T14:52:40;1.90;;;1.25;;
29576;SDS011;16509;53.862;10.672;2023-06-24T14:55:06;2.20;;;1.42;;
29576;SDS011;16509;53.862;10.672;2023-06-24T14:57:32;1.52;;;1.08;;